createdAt,value
2018-12-13T00:01:27.493Z,16.93
2018-12-13T00:03:56.270Z,16.10
2018-12-13T00:06:24.954Z,17.57
2018-12-13T00:08:53.688Z,16.60
2018-12-13T00:11:22.525Z,14.77
2018-12-13T00:13:51.331Z,15.23
2018-12-13T00:16:20.123Z,14.93
2018-12-13T00:18:49.976Z,14.60
2018-12-13T00:21:18.757Z,14.17
2018-12-13T00:23:47.493Z,15.67
2018-12-13T00:26:16.315Z,14.40
2018-12-13T00:28:45.126Z,13.13
2018-12-13T00:31:13.939Z,13.47
2018-12-13T00:33:42.702Z,13.13
2018-12-13T00:36:11.478Z,14.73
2018-12-13T00:38:40.171Z,13.47
2018-12-13T00:41:09.000Z,13.97
2018-12-13T00:43:37.730Z,12.17
2018-12-13T00:46:06.520Z,13.57
2018-12-13T00:48:35.221Z,12.70
2018-12-13T00:51:03.978Z,12.93
2018-12-13T00:53:32.750Z,12.07
2018-12-13T00:56:01.503Z,12.80
2018-12-13T00:58:30.268Z,13.20
2018-12-13T01:01:01.263Z,13.43
2018-12-13T01:03:30.687Z,13.03
2018-12-13T01:05:59.484Z,13.03
2018-12-13T01:08:28.211Z,13.23
2018-12-13T01:10:56.976Z,13.53
2018-12-13T01:13:25.675Z,12.77
2018-12-13T01:15:54.504Z,12.47
2018-12-13T01:18:23.220Z,12.60
2018-12-13T01:20:51.897Z,12.60
2018-12-13T01:23:20.698Z,13.90
2018-12-13T01:25:49.418Z,12.27
2018-12-13T01:28:18.158Z,14.43
2018-12-13T01:30:46.852Z,13.47
2018-12-13T01:33:15.571Z,13.33
2018-12-13T01:35:44.322Z,14.00
2018-12-13T01:38:13.085Z,13.37
2018-12-13T01:40:41.780Z,13.20
2018-12-13T01:43:10.535Z,13.80
2018-12-13T01:45:39.214Z,14.37
2018-12-13T01:48:07.951Z,12.07
2018-12-13T01:50:36.717Z,13.47
2018-12-13T01:53:05.468Z,13.47
2018-12-13T01:55:34.219Z,12.93
2018-12-13T01:58:02.907Z,12.13
2018-12-13T02:00:31.671Z,13.00
2018-12-13T02:03:00.343Z,13.50
2018-12-13T02:05:29.201Z,13.80
2018-12-13T02:07:57.916Z,14.07
2018-12-13T02:10:26.637Z,13.27
2018-12-13T02:12:55.369Z,13.67
2018-12-13T02:15:24.230Z,13.60
2018-12-13T02:17:52.898Z,14.10
2018-12-13T02:20:21.652Z,13.57
2018-12-13T02:22:50.396Z,13.20
2018-12-13T02:25:19.130Z,13.37
2018-12-13T02:27:47.904Z,14.43
2018-12-13T02:30:18.852Z,12.80
2018-12-13T02:32:47.618Z,13.50
2018-12-13T02:35:16.389Z,13.63
2018-12-13T02:37:45.165Z,13.93
2018-12-13T02:40:13.890Z,13.07
2018-12-13T02:42:42.637Z,13.37
2018-12-13T02:45:11.343Z,12.70
2018-12-13T02:47:40.110Z,12.67
2018-12-13T02:50:08.952Z,14.10
2018-12-13T02:52:37.644Z,13.90
2018-12-13T02:55:06.522Z,13.33
2018-12-13T02:57:35.310Z,13.80
2018-12-13T03:00:04.609Z,13.20
2018-12-13T03:02:33.420Z,13.50
2018-12-13T03:05:02.134Z,13.80
2018-12-13T03:07:30.937Z,14.07
2018-12-13T03:09:59.641Z,13.40
2018-12-13T03:12:28.382Z,14.87
2018-12-13T03:14:57.143Z,13.07
2018-12-13T03:17:25.877Z,12.77
2018-12-13T03:19:54.545Z,15.07
2018-12-13T03:22:23.310Z,13.70
2018-12-13T03:24:52.034Z,14.03
2018-12-13T03:27:20.755Z,13.83
2018-12-13T03:29:49.568Z,14.87
2018-12-13T03:32:18.304Z,13.67
2018-12-13T03:34:47.033Z,14.23
2018-12-13T03:37:20.663Z,13.67
2018-12-13T03:39:46.623Z,13.70
2018-12-13T03:42:15.349Z,14.30
2018-12-13T03:44:44.060Z,15.33
2018-12-13T03:47:12.799Z,13.97
2018-12-13T03:49:41.501Z,13.77
2018-12-13T03:52:10.284Z,15.03
2018-12-13T03:54:39.001Z,17.90
2018-12-13T03:57:07.776Z,16.67
2018-12-13T03:59:36.570Z,17.07
2018-12-13T04:02:05.381Z,16.73
2018-12-13T04:04:34.106Z,16.93
2018-12-13T04:07:02.772Z,17.70
2018-12-13T04:09:31.533Z,19.60
2018-12-13T04:12:00.295Z,20.60
2018-12-13T04:14:29.107Z,21.17
2018-12-13T04:16:57.809Z,18.60
2018-12-13T04:19:26.506Z,21.20
2018-12-13T04:21:55.188Z,19.80
2018-12-13T04:24:23.925Z,21.90
2018-12-13T04:26:52.627Z,19.53
2018-12-13T04:29:21.369Z,20.17
2018-12-13T04:31:50.239Z,17.67
2018-12-13T04:34:18.967Z,19.47
2018-12-13T04:36:47.689Z,19.77
2018-12-13T04:39:16.412Z,21.00
2018-12-13T04:41:45.105Z,22.03
2018-12-13T04:44:13.867Z,21.67
2018-12-13T04:46:42.563Z,22.40
2018-12-13T04:49:11.333Z,23.70
2018-12-13T04:51:40.019Z,22.80
2018-12-13T04:54:08.782Z,23.67
2018-12-13T04:56:37.598Z,22.47
2018-12-13T04:59:06.326Z,22.87
2018-12-13T05:01:35.071Z,22.93
2018-12-13T05:04:03.958Z,22.97
2018-12-13T05:06:32.686Z,23.90
2018-12-13T05:09:01.468Z,24.30
2018-12-13T05:11:30.231Z,23.27
2018-12-13T05:13:58.960Z,22.73
2018-12-13T05:16:27.695Z,22.50
2018-12-13T05:18:56.404Z,23.37
2018-12-13T05:21:25.101Z,21.03
2018-12-13T05:23:53.842Z,23.60
2018-12-13T05:26:22.519Z,24.50
2018-12-13T05:28:51.356Z,21.80
2018-12-13T05:31:20.440Z,24.10
2018-12-13T05:33:49.176Z,23.57
2018-12-13T05:36:17.978Z,24.57
2018-12-13T05:38:46.790Z,23.87
2018-12-13T05:41:15.600Z,22.30
2018-12-13T05:43:48.389Z,23.07
2018-12-13T05:46:17.254Z,21.70
2018-12-13T05:48:46.117Z,23.80
2018-12-13T05:51:14.897Z,21.67
2018-12-13T05:56:24.609Z,24.30
2018-12-13T05:58:59.920Z,24.77
2018-12-13T06:01:28.753Z,24.27
2018-12-13T06:03:57.490Z,22.27
2018-12-13T06:06:26.317Z,23.70
2018-12-13T06:08:55.115Z,25.60
2018-12-13T06:11:23.854Z,25.60
2018-12-13T06:13:52.539Z,24.40
2018-12-13T06:16:21.288Z,22.17
2018-12-13T06:18:50.006Z,22.53
2018-12-13T06:21:18.762Z,21.57
2018-12-13T06:23:50.751Z,23.57
2018-12-13T06:26:23.977Z,23.23
2018-12-13T06:28:56.277Z,23.13
2018-12-13T06:31:29.619Z,21.93
2018-12-13T06:34:02.838Z,23.43
2018-12-13T06:36:32.258Z,25.47
2018-12-13T06:39:01.493Z,24.40
2018-12-13T06:41:30.676Z,25.10
2018-12-13T06:43:59.748Z,23.30
2018-12-13T06:46:28.663Z,23.30
2018-12-13T06:48:57.671Z,23.33
2018-12-13T06:51:26.573Z,24.17
2018-12-13T06:53:55.556Z,24.30
2018-12-13T06:56:26.167Z,23.60
2018-12-13T06:58:55.157Z,24.17
2018-12-13T07:01:24.253Z,24.10
2018-12-13T07:03:53.203Z,26.50
2018-12-13T07:06:22.163Z,24.87
2018-12-13T07:08:51.120Z,23.30
2018-12-13T07:11:20.245Z,25.17
2018-12-13T07:13:49.022Z,25.83
2018-12-13T07:16:17.787Z,25.10
2018-12-13T07:18:46.608Z,23.00
2018-12-13T07:21:15.330Z,23.00
2018-12-13T07:23:44.217Z,22.57
2018-12-13T07:26:12.875Z,22.67
2018-12-13T07:28:41.677Z,23.70
2018-12-13T07:31:10.484Z,28.07
2018-12-13T07:33:39.247Z,25.27
2018-12-13T07:36:07.960Z,22.87
2018-12-13T07:38:36.740Z,25.23
2018-12-13T07:41:05.434Z,23.30
2018-12-13T07:43:34.185Z,23.23
2018-12-13T07:46:02.919Z,22.83
2018-12-13T07:48:31.672Z,24.47
2018-12-13T07:51:00.423Z,24.60
2018-12-13T07:53:29.132Z,24.17
2018-12-13T07:55:57.897Z,20.90
2018-12-13T07:58:26.632Z,21.67
2018-12-13T08:00:55.586Z,21.53
2018-12-13T08:03:24.379Z,21.00
2018-12-13T08:05:53.207Z,21.57
2018-12-13T08:08:21.986Z,21.73
2018-12-13T08:10:50.711Z,22.17
2018-12-13T08:13:19.418Z,23.43
2018-12-13T08:15:48.151Z,22.17
2018-12-13T08:18:16.910Z,22.10
2018-12-13T08:20:45.656Z,22.67
2018-12-13T08:23:14.715Z,22.07
2018-12-13T08:25:43.442Z,22.77
2018-12-13T08:28:12.185Z,23.30
2018-12-13T08:30:40.880Z,21.00
2018-12-13T08:33:09.604Z,20.57
2018-12-13T08:35:38.440Z,20.73
2018-12-13T08:38:07.168Z,20.67
2018-12-13T08:40:36.050Z,20.40
2018-12-13T08:43:05.107Z,20.63
2018-12-13T08:45:34.159Z,20.73
2018-12-13T08:48:02.957Z,20.23
2018-12-13T08:50:31.739Z,20.30
2018-12-13T08:53:00.476Z,20.43
2018-12-13T08:55:29.248Z,21.57
2018-12-13T08:57:58.031Z,21.17
2018-12-13T09:00:26.759Z,19.53
2018-12-13T09:02:55.501Z,21.20
2018-12-13T09:05:24.307Z,24.97
2018-12-13T09:07:53.045Z,23.63
2018-12-13T09:10:21.869Z,21.13
2018-12-13T09:12:50.763Z,19.13
2018-12-13T09:15:19.901Z,20.60
2018-12-13T09:17:48.778Z,19.47
2018-12-13T09:20:17.560Z,19.50
2018-12-13T09:22:46.343Z,19.37
2018-12-13T09:25:15.146Z,21.83
2018-12-13T09:27:43.963Z,20.20
2018-12-13T09:30:12.872Z,19.30
2018-12-13T09:32:41.652Z,19.77
2018-12-13T09:35:10.515Z,24.57
2018-12-13T09:37:39.223Z,23.83
2018-12-13T09:40:08.083Z,22.83
2018-12-13T09:42:36.856Z,21.07
2018-12-13T09:45:06.861Z,21.43
2018-12-13T09:47:35.661Z,22.00
2018-12-13T09:50:05.142Z,21.13
2018-12-13T09:52:33.827Z,26.27
2018-12-13T09:55:05.631Z,20.97
2018-12-13T09:57:35.540Z,19.87
2018-12-13T10:00:06.492Z,20.20
2018-12-13T10:02:35.220Z,18.37
2018-12-13T10:05:04.244Z,18.30
2018-12-13T10:07:33.034Z,16.87
2018-12-13T10:10:01.798Z,17.70
2018-12-13T10:12:30.500Z,17.13
2018-12-13T10:14:59.691Z,18.57
2018-12-13T10:17:28.492Z,18.73
2018-12-13T10:19:57.248Z,16.43
2018-12-13T10:22:25.980Z,16.93
2018-12-13T10:24:54.752Z,16.67
2018-12-13T10:27:23.511Z,17.30
2018-12-13T10:29:52.271Z,16.30
2018-12-13T10:32:20.997Z,16.80
2018-12-13T10:34:49.778Z,17.80
2018-12-13T10:37:18.497Z,17.67
2018-12-13T10:39:47.244Z,16.83
2018-12-13T10:42:15.970Z,16.93
2018-12-13T10:44:44.728Z,15.50
2018-12-13T10:47:13.444Z,17.03
2018-12-13T10:49:42.162Z,16.90
2018-12-13T10:52:10.938Z,16.53
2018-12-13T10:54:39.648Z,17.43
2018-12-13T10:57:08.427Z,18.33
2018-12-13T10:59:37.240Z,17.00
2018-12-13T11:02:10.201Z,20.37
2018-12-13T11:04:38.942Z,18.63
2018-12-13T11:07:07.750Z,17.73
2018-12-13T11:09:36.612Z,16.67
2018-12-13T11:12:05.612Z,16.03
2018-12-13T11:14:34.359Z,17.30
2018-12-13T11:17:03.086Z,18.10
2018-12-13T11:19:31.892Z,17.23
2018-12-13T11:22:00.651Z,16.67
2018-12-13T11:24:29.434Z,15.20
2018-12-13T11:27:08.239Z,15.97
2018-12-13T11:29:48.223Z,15.83
2018-12-13T11:32:17.013Z,15.80
2018-12-13T11:34:45.757Z,15.20
2018-12-13T11:37:14.545Z,15.03
2018-12-13T11:39:45.352Z,14.47
2018-12-13T11:42:14.368Z,15.77
2018-12-13T11:44:43.088Z,14.70
2018-12-13T11:47:11.755Z,16.17
2018-12-13T11:49:40.546Z,15.10
2018-12-13T11:52:09.256Z,15.47
2018-12-13T11:54:42.568Z,16.30
2018-12-13T11:57:11.536Z,16.27
2018-12-13T11:59:40.303Z,14.83
2018-12-13T12:02:09.013Z,14.67
2018-12-13T12:04:37.795Z,16.17
2018-12-13T12:07:06.671Z,15.13
2018-12-13T12:09:35.387Z,14.57
2018-12-13T12:12:04.164Z,14.83
2018-12-13T12:14:32.824Z,15.37
2018-12-13T12:17:01.554Z,15.63
2018-12-13T12:19:30.290Z,15.57
2018-12-13T12:21:59.060Z,15.30
2018-12-13T12:24:27.809Z,14.57
2018-12-13T12:26:56.620Z,14.40
2018-12-13T12:29:25.412Z,15.33
2018-12-13T12:31:54.200Z,15.00
2018-12-13T12:34:22.960Z,13.90
2018-12-13T12:36:51.684Z,15.00
2018-12-13T12:39:20.456Z,15.17
2018-12-13T12:41:49.186Z,16.90
2018-12-13T12:44:17.892Z,14.80
2018-12-13T12:46:46.840Z,13.60
2018-12-13T12:49:15.553Z,14.60
2018-12-13T12:51:44.349Z,13.77
2018-12-13T12:54:13.079Z,13.13
2018-12-13T12:56:41.903Z,13.70
2018-12-13T12:59:10.618Z,14.37
2018-12-13T13:01:39.320Z,13.37
2018-12-13T13:04:08.033Z,13.37
2018-12-13T13:06:37.055Z,13.33
2018-12-13T13:09:08.306Z,15.73
2018-12-13T13:11:37.306Z,14.50
2018-12-13T13:14:06.003Z,14.50
2018-12-13T13:16:34.687Z,14.80
2018-12-13T13:19:03.381Z,14.20
2018-12-13T13:21:32.002Z,14.97
2018-12-13T13:24:00.791Z,14.03
2018-12-13T13:26:29.460Z,15.90
2018-12-13T13:28:58.119Z,14.03
2018-12-13T13:31:26.734Z,15.67
2018-12-13T13:33:55.639Z,15.13
2018-12-13T13:36:24.313Z,16.30
2018-12-13T13:38:54.562Z,16.10
2018-12-13T13:41:23.486Z,15.63
2018-12-13T13:43:52.272Z,16.50
2018-12-13T13:46:20.914Z,17.93
2018-12-13T13:48:49.644Z,14.63
2018-12-13T13:51:18.323Z,15.27
2018-12-13T13:53:46.971Z,16.43
2018-12-13T13:56:15.698Z,15.77
2018-12-13T13:58:44.360Z,16.27
2018-12-13T14:01:13.057Z,14.30
2018-12-13T14:03:41.755Z,14.27
2018-12-13T14:06:10.414Z,13.50
2018-12-13T14:08:39.075Z,14.30
2018-12-13T14:11:07.755Z,13.57
2018-12-13T14:13:36.538Z,14.07
2018-12-13T14:16:05.208Z,13.57
2018-12-13T14:18:33.954Z,13.17
2018-12-13T14:21:02.671Z,15.70
2018-12-13T14:23:31.496Z,14.63
2018-12-13T14:26:00.354Z,14.77
2018-12-13T14:28:29.187Z,14.67
2018-12-13T14:30:58.051Z,14.90
2018-12-13T14:33:26.850Z,14.13
2018-12-13T14:35:55.621Z,15.03
2018-12-13T14:38:24.893Z,13.90
2018-12-13T14:40:53.739Z,15.47
2018-12-13T14:43:22.743Z,16.10
2018-12-13T14:45:51.470Z,15.63
2018-12-13T14:48:20.752Z,14.83
2018-12-13T14:50:49.512Z,16.33
2018-12-13T14:53:18.316Z,19.70
2018-12-13T14:55:47.112Z,14.27
2018-12-13T14:58:15.952Z,13.97
2018-12-13T15:00:44.761Z,13.33
2018-12-13T15:03:13.943Z,14.53
2018-12-13T15:05:42.837Z,14.10
2018-12-13T15:08:11.655Z,14.27
2018-12-13T15:10:40.351Z,13.50
2018-12-13T15:13:09.886Z,13.13
2018-12-13T15:15:38.539Z,13.73
2018-12-13T15:18:07.303Z,12.27
2018-12-13T15:20:36.030Z,12.80
2018-12-13T15:23:04.837Z,12.77
2018-12-13T15:25:33.720Z,13.23
2018-12-13T15:28:04.634Z,10.77
2018-12-13T15:30:34.670Z,12.03
2018-12-13T15:33:03.634Z,13.60
2018-12-13T15:35:32.395Z,12.80
2018-12-13T15:38:01.389Z,13.20
2018-12-13T15:40:30.237Z,13.77
2018-12-13T15:42:59.463Z,12.73
2018-12-13T15:45:28.403Z,13.20
2018-12-13T15:47:57.220Z,12.13
2018-12-13T15:50:26.153Z,13.67
2018-12-13T15:52:55.064Z,13.40
2018-12-13T15:55:23.826Z,13.37
2018-12-13T15:57:52.565Z,13.70
2018-12-13T16:00:21.427Z,12.23
2018-12-13T16:02:50.185Z,12.87
2018-12-13T16:05:19.095Z,13.20
2018-12-13T16:07:47.808Z,11.87
2018-12-13T16:10:16.561Z,12.33
2018-12-13T16:12:45.293Z,12.83
2018-12-13T16:15:14.089Z,14.23
2018-12-13T16:17:42.793Z,13.47
2018-12-13T16:20:11.683Z,13.87
2018-12-13T16:22:40.541Z,13.10
2018-12-13T16:25:09.275Z,13.33
2018-12-13T16:27:38.025Z,12.53
2018-12-13T16:30:07.823Z,12.03
2018-12-13T16:32:36.596Z,13.53
2018-12-13T16:35:05.562Z,12.60
2018-12-13T16:37:34.371Z,14.00
2018-12-13T16:40:03.234Z,17.70
2018-12-13T16:42:32.027Z,20.30
2018-12-13T16:45:00.851Z,15.43
2018-12-13T16:47:29.647Z,12.90
2018-12-13T16:49:58.484Z,12.00
2018-12-13T16:52:27.220Z,12.77
2018-12-13T16:54:56.283Z,12.20
2018-12-13T16:57:25.134Z,12.70
2018-12-13T16:59:54.043Z,12.43
2018-12-13T17:02:22.980Z,12.40
2018-12-13T17:04:51.824Z,12.67
2018-12-13T17:07:20.732Z,12.27
2018-12-13T17:09:49.519Z,12.13
2018-12-13T17:12:18.257Z,11.97
2018-12-13T17:14:47.537Z,16.83
2018-12-13T17:17:16.423Z,13.63
2018-12-13T17:19:45.425Z,12.60
2018-12-13T17:22:14.658Z,11.37
2018-12-13T17:24:43.551Z,14.13
2018-12-13T17:27:12.358Z,12.97
2018-12-13T17:29:41.171Z,13.33
2018-12-13T17:32:09.932Z,13.23
2018-12-13T17:34:38.674Z,12.37
2018-12-13T17:37:07.480Z,14.50
2018-12-13T17:39:36.282Z,12.40
2018-12-13T17:42:05.169Z,11.53
2018-12-13T17:44:33.924Z,12.43
2018-12-13T17:47:02.620Z,12.77
2018-12-13T17:49:31.393Z,12.80
2018-12-13T17:52:00.129Z,11.77
2018-12-13T17:54:28.871Z,11.93
2018-12-13T17:56:57.641Z,11.17
2018-12-13T17:59:26.411Z,10.63
2018-12-13T18:01:55.281Z,11.93
2018-12-13T18:04:24.033Z,11.53
2018-12-13T18:06:52.752Z,12.77
2018-12-13T18:09:21.486Z,12.33
2018-12-13T18:11:50.290Z,11.03
2018-12-13T18:14:19.071Z,12.33
2018-12-13T18:16:47.859Z,10.90
2018-12-13T18:19:16.582Z,11.57
2018-12-13T18:21:45.493Z,11.53
2018-12-13T18:24:15.081Z,11.20
2018-12-13T18:26:43.918Z,11.30
2018-12-13T18:29:12.708Z,11.93
2018-12-13T18:31:41.706Z,12.27
2018-12-13T18:34:10.544Z,10.87
2018-12-13T18:36:39.493Z,10.83
2018-12-13T18:39:08.894Z,10.77
2018-12-13T18:41:37.670Z,13.53
2018-12-13T18:44:06.419Z,14.57
2018-12-13T18:46:35.165Z,13.03
2018-12-13T18:49:04.026Z,14.47
2018-12-13T18:51:32.762Z,11.90
2018-12-13T18:54:03.733Z,12.03
2018-12-13T18:56:32.660Z,11.17
2018-12-13T18:59:03.536Z,11.63
2018-12-13T19:01:32.436Z,11.70
2018-12-13T19:04:01.382Z,11.03
2018-12-13T19:06:30.149Z,10.27
2018-12-13T19:08:58.937Z,10.77
2018-12-13T19:11:28.197Z,11.77
2018-12-13T19:13:58.000Z,10.10
2018-12-13T19:16:27.201Z,10.40
2018-12-13T19:18:57.781Z,10.47
2018-12-13T19:21:27.283Z,11.03
2018-12-13T19:23:56.102Z,11.30
2018-12-13T19:26:24.924Z,12.77
2018-12-13T19:28:54.090Z,11.33
2018-12-13T19:31:23.118Z,10.97
2018-12-13T19:33:51.984Z,10.87
2018-12-13T19:36:21.357Z,10.70
2018-12-13T19:38:50.187Z,11.33
2018-12-13T19:41:18.995Z,11.67
2018-12-13T19:43:47.827Z,10.33
2018-12-13T19:46:16.560Z,9.87
2018-12-13T19:48:45.409Z,9.30
2018-12-13T19:51:14.277Z,10.90
2018-12-13T19:53:43.390Z,10.47
2018-12-13T19:56:12.288Z,9.43
2018-12-13T19:58:41.070Z,9.60
2018-12-13T20:01:09.812Z,9.63
2018-12-13T20:03:38.649Z,11.40
2018-12-13T20:06:08.912Z,9.37
2018-12-13T20:08:37.812Z,10.33
2018-12-13T20:11:06.755Z,10.97
2018-12-13T20:13:35.657Z,9.17
2018-12-13T20:16:04.567Z,10.87
2018-12-13T20:18:33.651Z,10.37
2018-12-13T20:21:02.558Z,9.73
2018-12-13T20:23:31.350Z,10.27
2018-12-13T20:26:00.186Z,9.87
2018-12-13T20:28:28.924Z,9.97
2018-12-13T20:30:57.761Z,9.17
2018-12-13T20:33:29.092Z,9.07
2018-12-13T20:35:58.663Z,8.80
2018-12-13T20:38:27.447Z,9.77
2018-12-13T20:41:01.021Z,9.73
2018-12-13T20:43:29.002Z,8.67
2018-12-13T20:45:57.812Z,9.20
2018-12-13T20:48:26.579Z,9.93
2018-12-13T20:50:56.122Z,8.80
2018-12-13T20:53:24.993Z,8.53
2018-12-13T20:55:54.911Z,8.53
2018-12-13T20:58:24.539Z,9.07
2018-12-13T21:00:54.757Z,8.80
2018-12-13T21:03:24.160Z,8.23
2018-12-13T21:05:52.926Z,8.57
2018-12-13T21:08:22.086Z,8.43
2018-12-13T21:10:50.868Z,9.03
2018-12-13T21:13:19.872Z,9.00
2018-12-13T21:15:48.704Z,8.40
2018-12-13T21:18:17.545Z,7.57
2018-12-13T21:20:46.466Z,8.50
2018-12-13T21:23:15.375Z,8.33
2018-12-13T21:25:44.211Z,8.17
2018-12-13T21:28:12.983Z,8.63
2018-12-13T21:30:42.093Z,9.47
2018-12-13T21:33:10.837Z,8.37
2018-12-13T21:35:39.661Z,8.40
2018-12-13T21:38:08.431Z,8.87
2018-12-13T21:40:37.216Z,9.67
2018-12-13T21:43:06.172Z,9.77
2018-12-13T21:45:35.293Z,9.20
2018-12-13T21:48:04.063Z,8.60
2018-12-13T21:50:32.874Z,9.60
2018-12-13T21:53:01.601Z,9.07
2018-12-13T21:55:30.435Z,8.77
2018-12-13T21:57:59.314Z,9.33
2018-12-13T22:00:28.191Z,8.70
2018-12-13T22:02:56.986Z,8.90
2018-12-13T22:05:25.686Z,8.77
2018-12-13T22:07:54.419Z,8.53
2018-12-13T22:10:23.145Z,9.37
2018-12-13T22:12:51.905Z,8.97
2018-12-13T22:15:20.590Z,10.17
2018-12-13T22:17:49.394Z,9.17
2018-12-13T22:20:18.099Z,9.10
2018-12-13T22:22:46.783Z,9.27
2018-12-13T22:25:15.585Z,9.77
2018-12-13T22:27:44.309Z,9.83
2018-12-13T22:30:13.042Z,10.13
2018-12-13T22:32:41.778Z,10.30
2018-12-13T22:35:10.458Z,9.30
2018-12-13T22:37:39.215Z,9.77
2018-12-13T22:40:08.088Z,10.70
2018-12-13T22:42:36.971Z,9.23
2018-12-13T22:45:06.373Z,9.47
2018-12-13T22:47:35.290Z,9.03
2018-12-13T22:50:04.147Z,9.33
2018-12-13T22:52:32.914Z,8.50
2018-12-13T22:55:01.615Z,9.83
2018-12-13T22:57:30.459Z,9.37
2018-12-13T22:59:59.125Z,8.43
2018-12-13T23:02:28.372Z,10.97
2018-12-13T23:04:57.073Z,9.40
2018-12-13T23:07:25.810Z,9.73
2018-12-13T23:09:54.527Z,9.90
2018-12-13T23:12:23.213Z,9.17
2018-12-13T23:14:52.083Z,10.40
2018-12-13T23:17:20.903Z,9.87
2018-12-13T23:19:49.630Z,8.50
2018-12-13T23:22:18.359Z,10.13
2018-12-13T23:24:47.064Z,9.03
2018-12-13T23:27:15.777Z,10.00
2018-12-13T23:29:44.497Z,8.47
2018-12-13T23:32:13.217Z,9.53
2018-12-13T23:34:41.951Z,8.50
2018-12-13T23:37:11.742Z,8.50
2018-12-13T23:39:40.468Z,9.70
2018-12-13T23:42:09.147Z,8.53
2018-12-13T23:44:37.875Z,9.43
2018-12-13T23:47:06.657Z,9.43
2018-12-13T23:49:35.447Z,9.30
2018-12-13T23:52:04.189Z,8.90
2018-12-13T23:54:32.897Z,9.07
2018-12-13T23:57:01.629Z,9.10
2018-12-13T23:59:30.350Z,10.00
